createdAt,value
2023-04-30T00:00:45.902Z,629.00
2023-04-30T00:01:45.892Z,631.00
2023-04-30T00:02:46.096Z,630.00
2023-04-30T00:03:45.968Z,631.00
2023-04-30T00:04:45.863Z,631.00
2023-04-30T00:05:45.826Z,631.00
2023-04-30T00:06:45.958Z,632.00
2023-04-30T00:07:45.829Z,632.00
2023-04-30T00:08:45.865Z,636.00
2023-04-30T00:09:45.819Z,638.00
2023-04-30T00:10:45.837Z,638.00
2023-04-30T00:11:45.838Z,640.00
2023-04-30T00:12:45.817Z,638.00
2023-04-30T00:13:45.788Z,637.00
2023-04-30T00:14:45.781Z,636.00
2023-04-30T00:15:45.793Z,635.00
2023-04-30T00:16:46.779Z,635.00
2023-04-30T00:17:46.896Z,635.00
2023-04-30T00:18:45.740Z,635.00
2023-04-30T00:19:45.797Z,634.00
2023-04-30T00:20:46.202Z,634.00
2023-04-30T00:21:45.757Z,634.00
2023-04-30T00:22:45.734Z,634.00
2023-04-30T00:23:45.726Z,632.00
2023-04-30T00:24:45.708Z,633.00
2023-04-30T00:25:46.704Z,634.00
2023-04-30T00:26:45.672Z,631.00
2023-04-30T00:27:45.705Z,630.00
2023-04-30T00:28:45.705Z,631.00
2023-04-30T00:29:45.666Z,632.00
2023-04-30T00:30:45.736Z,630.00
2023-04-30T00:31:45.719Z,629.00
2023-04-30T00:32:45.793Z,630.00
2023-04-30T00:33:46.232Z,635.00
2023-04-30T00:34:45.625Z,634.00
2023-04-30T00:35:45.743Z,633.00
2023-04-30T00:36:45.662Z,631.00
2023-04-30T00:37:45.637Z,631.00
2023-04-30T00:38:45.625Z,631.00
2023-04-30T00:39:45.628Z,633.00
2023-04-30T00:40:45.626Z,634.00
2023-04-30T00:41:45.610Z,634.00
2023-04-30T00:42:45.588Z,633.00
2023-04-30T00:43:45.599Z,635.00
2023-04-30T00:44:45.605Z,636.00
2023-04-30T00:45:45.733Z,637.00
2023-04-30T00:46:45.534Z,636.00
2023-04-30T00:47:45.628Z,638.00
2023-04-30T00:48:45.534Z,638.00
2023-04-30T00:49:45.563Z,636.00
2023-04-30T00:50:45.734Z,637.00
2023-04-30T00:51:45.550Z,638.00
2023-04-30T00:52:45.502Z,637.00
2023-04-30T00:53:45.525Z,640.00
2023-04-30T00:54:45.492Z,641.00
2023-04-30T00:55:45.738Z,639.00
2023-04-30T00:56:45.467Z,642.00
2023-04-30T00:57:46.208Z,644.00
2023-04-30T00:58:45.458Z,642.00
2023-04-30T00:59:45.451Z,641.00
2023-04-30T01:00:45.472Z,638.00
2023-04-30T01:01:45.460Z,637.00
2023-04-30T01:02:45.505Z,634.00
2023-04-30T01:03:45.462Z,638.00
2023-04-30T01:04:45.420Z,638.00
2023-04-30T01:05:45.735Z,639.00
2023-04-30T01:06:45.544Z,638.00
2023-04-30T01:07:45.429Z,639.00
2023-04-30T01:08:45.396Z,638.00
2023-04-30T01:09:46.231Z,638.00
2023-04-30T01:10:45.425Z,635.00
2023-04-30T01:11:45.417Z,634.00
2023-04-30T01:12:45.375Z,635.00
2023-04-30T01:13:45.372Z,632.00
2023-04-30T01:14:45.396Z,633.00
2023-04-30T01:15:45.396Z,633.00
2023-04-30T01:16:45.378Z,631.00
2023-04-30T01:17:46.280Z,629.00
2023-04-30T01:18:45.499Z,627.00
2023-04-30T01:19:45.335Z,626.00
2023-04-30T01:20:45.325Z,629.00
2023-04-30T01:21:45.332Z,631.00
2023-04-30T01:22:45.324Z,629.00
2023-04-30T01:23:45.301Z,631.00
2023-04-30T01:24:45.282Z,632.00
2023-04-30T01:25:45.272Z,632.00
2023-04-30T01:26:45.311Z,630.00
2023-04-30T01:27:45.272Z,631.00
2023-04-30T01:28:45.276Z,633.00
2023-04-30T01:29:45.238Z,634.00
2023-04-30T01:30:45.235Z,632.00
2023-04-30T01:31:45.282Z,634.00
2023-04-30T01:32:45.294Z,634.00
2023-04-30T01:33:45.211Z,636.00
2023-04-30T01:34:45.195Z,634.00
2023-04-30T01:35:45.216Z,633.00
2023-04-30T01:36:45.224Z,632.00
2023-04-30T01:37:45.221Z,631.00
2023-04-30T01:38:45.216Z,632.00
2023-04-30T01:39:45.195Z,630.00
2023-04-30T01:40:45.179Z,630.00
2023-04-30T01:41:45.172Z,630.00
2023-04-30T01:42:45.174Z,629.00
2023-04-30T01:43:45.150Z,629.00
2023-04-30T01:44:45.145Z,628.00
2023-04-30T01:45:45.182Z,629.00
2023-04-30T01:46:45.172Z,629.00
2023-04-30T01:47:45.225Z,629.00
2023-04-30T01:48:45.148Z,628.00
2023-04-30T01:49:45.133Z,629.00
2023-04-30T01:50:45.133Z,629.00
2023-04-30T01:51:45.132Z,628.00
2023-04-30T01:52:45.099Z,628.00
2023-04-30T01:53:45.118Z,628.00
2023-04-30T01:54:45.073Z,629.00
2023-04-30T01:55:45.072Z,629.00
2023-04-30T01:56:45.072Z,629.00
2023-04-30T01:57:45.072Z,631.00
2023-04-30T01:58:45.073Z,631.00
2023-04-30T01:59:45.767Z,631.00
2023-04-30T02:00:45.051Z,631.00
2023-04-30T02:01:45.101Z,631.00
2023-04-30T02:02:45.188Z,629.00
2023-04-30T02:03:45.118Z,632.00
2023-04-30T02:04:45.028Z,631.00
2023-04-30T02:05:45.028Z,631.00
2023-04-30T02:06:45.033Z,631.00
2023-04-30T02:07:45.022Z,628.00
2023-04-30T02:08:45.009Z,629.00
2023-04-30T02:09:45.016Z,629.00
2023-04-30T02:10:45.005Z,627.00
2023-04-30T02:11:44.998Z,630.00
2023-04-30T02:12:44.979Z,633.00
2023-04-30T02:13:46.793Z,632.00
2023-04-30T02:14:44.976Z,631.00
2023-04-30T02:15:44.990Z,629.00
2023-04-30T02:16:44.974Z,629.00
2023-04-30T02:17:44.998Z,630.00
2023-04-30T02:18:44.944Z,628.00
2023-04-30T02:19:44.935Z,629.00
2023-04-30T02:20:44.916Z,629.00
2023-04-30T02:21:44.919Z,631.00
2023-04-30T02:22:44.923Z,628.00
2023-04-30T02:23:44.881Z,630.00
2023-04-30T02:24:44.911Z,631.00
2023-04-30T02:25:44.881Z,631.00
2023-04-30T02:26:44.872Z,631.00
2023-04-30T02:27:44.883Z,630.00
2023-04-30T02:28:44.885Z,631.00
2023-04-30T02:29:44.843Z,631.00
2023-04-30T02:30:44.860Z,630.00
2023-04-30T02:31:45.286Z,630.00
2023-04-30T02:32:44.876Z,630.00
2023-04-30T02:33:45.735Z,630.00
2023-04-30T02:34:44.816Z,630.00
2023-04-30T02:35:44.820Z,630.00
2023-04-30T02:36:44.812Z,630.00
2023-04-30T02:37:44.785Z,631.00
2023-04-30T02:38:44.818Z,630.00
2023-04-30T02:39:44.781Z,630.00
2023-04-30T02:40:44.788Z,630.00
2023-04-30T02:41:44.782Z,632.00
2023-04-30T02:42:44.790Z,634.00
2023-04-30T02:43:44.790Z,635.00
2023-04-30T02:44:44.815Z,635.00
2023-04-30T02:45:44.845Z,635.00
2023-04-30T02:46:45.244Z,636.00
2023-04-30T02:47:44.834Z,636.00
2023-04-30T02:48:44.798Z,635.00
2023-04-30T02:49:44.806Z,633.00
2023-04-30T02:50:44.831Z,634.00
2023-04-30T02:51:44.914Z,631.00
2023-04-30T02:52:44.823Z,630.00
2023-04-30T02:53:44.842Z,629.00
2023-04-30T02:54:44.859Z,627.00
2023-04-30T02:55:44.856Z,627.00
2023-04-30T02:56:45.264Z,626.00
2023-04-30T02:57:44.867Z,627.00
2023-04-30T02:58:44.882Z,627.00
2023-04-30T02:59:44.884Z,628.00
2023-04-30T03:00:44.885Z,628.00
2023-04-30T03:01:44.932Z,627.00
2023-04-30T03:02:45.003Z,626.00
2023-04-30T03:03:44.967Z,623.00
2023-04-30T03:04:44.876Z,625.00
2023-04-30T03:05:44.879Z,626.00
2023-04-30T03:06:45.320Z,623.00
2023-04-30T03:07:44.924Z,624.00
2023-04-30T03:08:44.934Z,626.00
2023-04-30T03:09:44.920Z,627.00
2023-04-30T03:10:44.960Z,626.00
2023-04-30T03:11:44.970Z,623.00
2023-04-30T03:12:44.940Z,625.00
2023-04-30T03:13:44.950Z,623.00
2023-04-30T03:14:44.932Z,621.00
2023-04-30T03:15:44.949Z,620.00
2023-04-30T03:16:45.365Z,622.00
2023-04-30T03:17:46.350Z,627.00
2023-04-30T03:18:44.966Z,626.00
2023-04-30T03:19:44.946Z,626.00
2023-04-30T03:20:44.969Z,626.00
2023-04-30T03:21:44.980Z,626.00
2023-04-30T03:22:44.956Z,625.00
2023-04-30T03:23:44.947Z,626.00
2023-04-30T03:24:44.952Z,623.00
2023-04-30T03:25:44.966Z,623.00
2023-04-30T03:26:44.964Z,625.00
2023-04-30T03:27:44.992Z,625.00
2023-04-30T03:28:45.009Z,622.00
2023-04-30T03:29:44.988Z,622.00
2023-04-30T03:30:44.996Z,622.00
2023-04-30T03:31:45.077Z,622.00
2023-04-30T03:32:45.048Z,624.00
2023-04-30T03:33:45.075Z,624.00
2023-04-30T03:34:44.993Z,625.00
2023-04-30T03:35:45.064Z,625.00
2023-04-30T03:36:45.016Z,626.00
2023-04-30T03:37:45.040Z,628.00
2023-04-30T03:38:45.038Z,629.00
2023-04-30T03:39:45.029Z,629.00
2023-04-30T03:40:45.059Z,627.00
2023-04-30T03:41:45.034Z,627.00
2023-04-30T03:42:45.023Z,626.00
2023-04-30T03:43:45.052Z,625.00
2023-04-30T03:44:45.069Z,626.00
2023-04-30T03:45:45.149Z,625.00
2023-04-30T03:46:45.399Z,625.00
2023-04-30T03:47:45.151Z,625.00
2023-04-30T03:48:45.114Z,627.00
2023-04-30T03:49:45.136Z,627.00
2023-04-30T03:50:45.143Z,625.00
2023-04-30T03:51:45.118Z,624.00
2023-04-30T03:52:45.127Z,626.00
2023-04-30T03:53:45.124Z,626.00
2023-04-30T03:54:45.130Z,626.00
2023-04-30T03:55:45.159Z,626.00
2023-04-30T03:56:45.307Z,624.00
2023-04-30T03:57:45.219Z,625.00
2023-04-30T03:58:45.179Z,624.00
2023-04-30T03:59:45.198Z,627.00
2023-04-30T04:00:45.172Z,625.00
2023-04-30T04:01:45.361Z,628.00
2023-04-30T04:02:45.295Z,628.00
2023-04-30T04:03:45.213Z,627.00
2023-04-30T04:04:45.240Z,626.00
2023-04-30T04:05:45.253Z,627.00
2023-04-30T04:06:45.326Z,626.00
2023-04-30T04:07:45.271Z,626.00
2023-04-30T04:08:45.284Z,625.00
2023-04-30T04:09:45.246Z,628.00
2023-04-30T04:10:45.287Z,627.00
2023-04-30T04:11:45.284Z,625.00
2023-04-30T04:12:45.312Z,626.00
2023-04-30T04:13:45.303Z,622.00
2023-04-30T04:14:45.309Z,624.00
2023-04-30T04:15:45.325Z,625.00
2023-04-30T04:16:45.341Z,626.00
2023-04-30T04:17:45.364Z,624.00
2023-04-30T04:18:45.335Z,625.00
2023-04-30T04:19:45.364Z,624.00
2023-04-30T04:20:45.391Z,625.00
2023-04-30T04:21:45.819Z,625.00
2023-04-30T04:22:45.414Z,623.00
2023-04-30T04:23:45.413Z,622.00
2023-04-30T04:24:45.415Z,621.00
2023-04-30T04:25:45.441Z,619.00
2023-04-30T04:26:47.530Z,620.00
2023-04-30T04:27:45.596Z,621.00
2023-04-30T04:28:45.627Z,623.00
2023-04-30T04:29:45.633Z,623.00
2023-04-30T04:30:45.592Z,622.00
2023-04-30T04:31:45.840Z,621.00
2023-04-30T04:32:45.649Z,622.00
2023-04-30T04:33:45.652Z,620.00
2023-04-30T04:34:45.660Z,620.00
2023-04-30T04:35:45.677Z,620.00
2023-04-30T04:36:45.668Z,619.00
2023-04-30T04:37:45.654Z,620.00
2023-04-30T04:38:45.669Z,622.00
2023-04-30T04:39:45.660Z,622.00
2023-04-30T04:40:45.704Z,622.00
2023-04-30T04:41:45.718Z,625.00
2023-04-30T04:42:45.717Z,623.00
2023-04-30T04:43:45.717Z,622.00
2023-04-30T04:44:45.730Z,622.00
2023-04-30T04:45:45.723Z,623.00
2023-04-30T04:46:45.813Z,623.00
2023-04-30T04:47:45.770Z,621.00
2023-04-30T04:48:45.754Z,624.00
2023-04-30T04:49:45.726Z,622.00
2023-04-30T04:50:45.796Z,624.00
2023-04-30T04:51:45.745Z,627.00
2023-04-30T04:52:45.784Z,625.00
2023-04-30T04:53:45.781Z,625.00
2023-04-30T04:54:45.792Z,627.00
2023-04-30T04:55:45.760Z,625.00
2023-04-30T04:56:45.780Z,624.00
2023-04-30T04:57:45.796Z,623.00
2023-04-30T04:58:45.794Z,620.00
2023-04-30T04:59:45.800Z,622.00
2023-04-30T05:00:45.795Z,625.00
2023-04-30T05:01:45.853Z,626.00
2023-04-30T05:02:45.877Z,625.00
2023-04-30T05:03:45.919Z,626.00
2023-04-30T05:04:45.830Z,625.00
2023-04-30T05:05:45.843Z,621.00
2023-04-30T05:06:45.873Z,622.00
2023-04-30T05:07:45.870Z,621.00
2023-04-30T05:08:45.877Z,620.00
2023-04-30T05:09:45.868Z,619.00
2023-04-30T05:10:45.845Z,616.00
2023-04-30T05:11:45.877Z,617.00
2023-04-30T05:12:45.880Z,615.00
2023-04-30T05:13:45.902Z,617.00
2023-04-30T05:14:45.873Z,622.00
2023-04-30T05:15:45.979Z,622.00
2023-04-30T05:16:45.924Z,620.00
2023-04-30T05:17:45.916Z,622.00
2023-04-30T05:18:45.922Z,621.00
2023-04-30T05:19:45.903Z,621.00
2023-04-30T05:20:45.906Z,619.00
2023-04-30T05:21:45.930Z,619.00
2023-04-30T05:22:45.939Z,621.00
2023-04-30T05:23:45.940Z,624.00
2023-04-30T05:24:45.949Z,622.00
2023-04-30T05:25:45.932Z,623.00
2023-04-30T05:26:45.970Z,622.00
2023-04-30T05:27:45.992Z,622.00
2023-04-30T05:28:45.985Z,622.00
2023-04-30T05:29:45.969Z,621.00
2023-04-30T05:30:45.985Z,618.00
2023-04-30T05:31:45.988Z,615.00
2023-04-30T05:32:46.070Z,614.00
2023-04-30T05:33:45.972Z,612.00
2023-04-30T05:34:45.955Z,613.00
2023-04-30T05:35:45.981Z,613.00
2023-04-30T05:36:45.995Z,613.00
2023-04-30T05:37:45.954Z,612.00
2023-04-30T05:38:45.971Z,611.00
2023-04-30T05:39:45.986Z,612.00
2023-04-30T05:40:45.994Z,610.00
2023-04-30T05:41:46.053Z,614.00
2023-04-30T05:42:45.983Z,617.00
2023-04-30T05:43:45.998Z,616.00
2023-04-30T05:44:46.003Z,615.00
2023-04-30T05:45:46.052Z,611.00
2023-04-30T05:46:46.329Z,608.00
2023-04-30T05:47:46.054Z,608.00
2023-04-30T05:48:45.983Z,611.00
2023-04-30T05:49:45.982Z,613.00
2023-04-30T05:50:45.987Z,612.00
2023-04-30T05:51:46.338Z,613.00
2023-04-30T05:52:46.005Z,614.00
2023-04-30T05:53:46.006Z,614.00
2023-04-30T05:54:46.857Z,613.00
2023-04-30T05:55:46.240Z,612.00
2023-04-30T05:56:46.337Z,614.00
2023-04-30T05:57:46.252Z,613.00
2023-04-30T05:58:46.209Z,611.00
2023-04-30T05:59:46.235Z,612.00
2023-04-30T06:00:46.212Z,611.00
2023-04-30T06:01:46.225Z,609.00
2023-04-30T06:02:46.331Z,607.00
2023-04-30T06:03:46.210Z,605.00
2023-04-30T06:04:46.218Z,607.00
2023-04-30T06:05:46.315Z,608.00
2023-04-30T06:06:46.227Z,608.00
2023-04-30T06:07:46.188Z,609.00
2023-04-30T06:08:46.173Z,608.00
2023-04-30T06:09:46.185Z,607.00
2023-04-30T06:10:46.187Z,606.00
2023-04-30T06:11:46.173Z,604.00
2023-04-30T06:12:46.164Z,607.00
2023-04-30T06:13:46.134Z,607.00
2023-04-30T06:14:46.154Z,608.00
2023-04-30T06:15:46.197Z,608.00
2023-04-30T06:16:46.203Z,610.00
2023-04-30T06:17:46.244Z,612.00
2023-04-30T06:18:46.144Z,611.00
2023-04-30T06:19:46.160Z,611.00
2023-04-30T06:20:46.172Z,609.00
2023-04-30T06:21:46.175Z,610.00
2023-04-30T06:22:46.134Z,609.00
2023-04-30T06:23:46.155Z,605.00
2023-04-30T06:24:46.157Z,603.00
2023-04-30T06:25:46.150Z,603.00
2023-04-30T06:26:46.169Z,600.00
2023-04-30T06:27:46.192Z,602.00
2023-04-30T06:28:46.160Z,602.00
2023-04-30T06:29:46.181Z,600.00
2023-04-30T06:30:46.233Z,601.00
2023-04-30T06:31:46.275Z,602.00
2023-04-30T06:32:46.293Z,600.00
2023-04-30T06:33:46.226Z,599.00
2023-04-30T06:34:46.254Z,600.00
2023-04-30T06:35:46.270Z,599.00
2023-04-30T06:36:46.303Z,600.00
2023-04-30T06:37:46.303Z,600.00
2023-04-30T06:38:46.331Z,603.00
2023-04-30T06:39:46.392Z,605.00
2023-04-30T06:40:46.370Z,606.00
2023-04-30T06:41:46.417Z,607.00
2023-04-30T06:42:47.555Z,606.00
2023-04-30T06:43:46.476Z,608.00
2023-04-30T06:44:46.491Z,608.00
2023-04-30T06:45:46.476Z,607.00
2023-04-30T06:46:46.517Z,604.00
2023-04-30T06:47:46.541Z,604.00
2023-04-30T06:48:46.568Z,604.00
2023-04-30T06:49:46.650Z,604.00
2023-04-30T06:50:46.636Z,604.00
2023-04-30T06:51:46.684Z,608.00
2023-04-30T06:52:46.654Z,610.00
2023-04-30T06:53:46.692Z,609.00
2023-04-30T06:54:46.699Z,608.00
2023-04-30T06:55:46.708Z,608.00
2023-04-30T06:56:46.766Z,608.00
2023-04-30T06:57:46.741Z,610.00
2023-04-30T06:58:46.781Z,610.00
2023-04-30T06:59:46.791Z,611.00
2023-04-30T07:00:46.824Z,613.00
2023-04-30T07:01:47.403Z,615.00
2023-04-30T07:02:46.977Z,615.00
2023-04-30T07:03:47.215Z,614.00
2023-04-30T07:04:46.914Z,613.00
2023-04-30T07:05:46.987Z,613.00
2023-04-30T07:06:46.991Z,611.00
2023-04-30T07:07:47.025Z,611.00
2023-04-30T07:08:47.057Z,609.00
2023-04-30T07:09:48.532Z,610.00
2023-04-30T07:10:47.216Z,612.00
2023-04-30T07:11:47.280Z,614.00
2023-04-30T07:12:47.314Z,612.00
2023-04-30T07:13:47.355Z,610.00
2023-04-30T07:14:47.386Z,607.00
2023-04-30T07:15:47.482Z,608.00
2023-04-30T07:16:47.491Z,607.00
2023-04-30T07:17:47.912Z,607.00
2023-04-30T07:18:47.580Z,607.00
2023-04-30T07:19:47.602Z,606.00
2023-04-30T07:20:47.642Z,610.00
2023-04-30T07:21:47.706Z,607.00
2023-04-30T07:22:47.734Z,606.00
2023-04-30T07:23:47.817Z,608.00
2023-04-30T07:24:47.896Z,609.00
2023-04-30T07:25:48.000Z,608.00
2023-04-30T07:26:48.058Z,605.00
2023-04-30T07:27:48.046Z,606.00
2023-04-30T07:28:48.123Z,608.00
2023-04-30T07:29:48.183Z,609.00
2023-04-30T07:30:48.256Z,605.00
2023-04-30T07:31:48.360Z,606.00
2023-04-30T07:32:48.403Z,606.00
2023-04-30T07:33:48.424Z,606.00
2023-04-30T07:34:48.491Z,607.00
2023-04-30T07:35:48.577Z,606.00
2023-04-30T07:36:48.631Z,606.00
2023-04-30T07:37:48.694Z,607.00
2023-04-30T07:38:48.746Z,603.00
2023-04-30T07:39:48.821Z,603.00
2023-04-30T07:40:48.862Z,606.00
2023-04-30T07:41:48.924Z,607.00
2023-04-30T07:42:49.393Z,606.00
2023-04-30T07:43:49.030Z,607.00
2023-04-30T07:44:49.050Z,607.00
2023-04-30T07:45:49.193Z,609.00
2023-04-30T07:46:49.209Z,608.00
2023-04-30T07:47:49.314Z,609.00
2023-04-30T07:48:49.322Z,610.00
2023-04-30T07:49:49.444Z,608.00
2023-04-30T07:50:50.738Z,607.00
2023-04-30T07:51:49.452Z,604.00
2023-04-30T07:52:49.871Z,603.00
2023-04-30T07:53:49.428Z,606.00
2023-04-30T07:54:49.427Z,606.00
2023-04-30T07:55:49.408Z,604.00
2023-04-30T07:56:49.423Z,603.00
2023-04-30T07:57:49.412Z,601.00
2023-04-30T07:58:49.388Z,602.00
2023-04-30T07:59:51.359Z,601.00
2023-04-30T08:00:49.413Z,604.00
2023-04-30T08:01:49.392Z,606.00
2023-04-30T08:02:49.489Z,605.00
2023-04-30T08:03:49.460Z,605.00
2023-04-30T08:04:49.382Z,606.00
2023-04-30T08:05:49.353Z,606.00
2023-04-30T08:06:49.443Z,605.00
2023-04-30T08:07:49.324Z,605.00
2023-04-30T08:08:50.477Z,603.00
2023-04-30T08:09:49.318Z,603.00
2023-04-30T08:10:49.329Z,603.00
2023-04-30T08:11:49.320Z,604.00
2023-04-30T08:12:49.287Z,605.00
2023-04-30T08:13:49.275Z,605.00
2023-04-30T08:14:49.279Z,605.00
2023-04-30T08:15:49.284Z,603.00
2023-04-30T08:16:49.321Z,605.00
2023-04-30T08:17:49.380Z,605.00
2023-04-30T08:18:49.272Z,604.00
2023-04-30T08:19:49.288Z,603.00
2023-04-30T08:20:49.274Z,603.00
2023-04-30T08:21:49.255Z,605.00
2023-04-30T08:22:49.238Z,604.00
2023-04-30T08:23:49.249Z,604.00
2023-04-30T08:24:49.230Z,605.00
2023-04-30T08:25:49.202Z,603.00
2023-04-30T08:26:49.298Z,602.00
2023-04-30T08:27:49.317Z,602.00
2023-04-30T08:28:49.427Z,605.00
2023-04-30T08:29:49.514Z,604.00
2023-04-30T08:30:49.525Z,601.00
2023-04-30T08:31:49.627Z,601.00
2023-04-30T08:32:49.696Z,601.00
2023-04-30T08:33:49.709Z,604.00
2023-04-30T08:34:49.779Z,604.00
2023-04-30T08:35:49.881Z,604.00
2023-04-30T08:36:49.915Z,606.00
2023-04-30T08:37:49.992Z,605.00
2023-04-30T08:38:50.036Z,602.00
2023-04-30T08:39:50.102Z,602.00
2023-04-30T08:40:52.012Z,602.00
2023-04-30T08:41:50.209Z,603.00
2023-04-30T08:42:50.314Z,604.00
2023-04-30T08:43:50.367Z,605.00
2023-04-30T08:44:51.374Z,604.00
2023-04-30T08:45:50.538Z,604.00
2023-04-30T08:46:50.553Z,605.00
2023-04-30T08:47:50.634Z,606.00
2023-04-30T08:48:50.682Z,605.00
2023-04-30T08:49:50.745Z,604.00
2023-04-30T08:50:51.341Z,604.00
2023-04-30T08:51:50.859Z,605.00
2023-04-30T08:52:50.916Z,606.00
2023-04-30T08:53:51.015Z,605.00
2023-04-30T08:54:51.054Z,605.00
2023-04-30T08:55:51.100Z,606.00
2023-04-30T08:56:51.167Z,606.00
2023-04-30T08:57:51.224Z,605.00
2023-04-30T08:58:51.304Z,607.00
2023-04-30T08:59:51.349Z,607.00
2023-04-30T09:00:52.356Z,604.00
2023-04-30T09:01:53.667Z,600.00
2023-04-30T09:02:51.659Z,599.00
2023-04-30T09:03:51.751Z,596.00
2023-04-30T09:04:51.723Z,593.00
2023-04-30T09:05:51.737Z,594.00
2023-04-30T09:06:51.770Z,593.00
2023-04-30T09:08:02.625Z,594.00
2023-04-30T09:08:52.825Z,594.00
2023-04-30T09:09:51.893Z,594.00
2023-04-30T09:10:51.830Z,593.00
2023-04-30T09:11:51.816Z,595.00
2023-04-30T09:12:51.804Z,595.00
2023-04-30T09:13:51.809Z,597.00
2023-04-30T09:14:51.773Z,599.00
2023-04-30T09:15:51.791Z,600.00
2023-04-30T09:16:51.760Z,599.00
2023-04-30T09:17:51.898Z,601.00
2023-04-30T09:18:51.768Z,602.00
2023-04-30T09:19:51.814Z,600.00
2023-04-30T09:20:51.841Z,602.00
2023-04-30T09:21:51.896Z,602.00
2023-04-30T09:22:51.938Z,598.00
2023-04-30T09:23:51.941Z,597.00
2023-04-30T09:24:51.991Z,596.00
2023-04-30T09:25:52.023Z,596.00
2023-04-30T09:26:52.345Z,597.00
2023-04-30T09:27:52.095Z,598.00
2023-04-30T09:28:52.148Z,598.00
2023-04-30T09:29:52.443Z,599.00
2023-04-30T09:30:52.234Z,601.00
2023-04-30T09:31:52.245Z,601.00
2023-04-30T09:32:52.367Z,600.00
2023-04-30T09:33:52.330Z,599.00
2023-04-30T09:34:52.378Z,599.00
2023-04-30T09:35:52.407Z,597.00
2023-04-30T09:36:52.435Z,598.00
2023-04-30T09:37:52.481Z,599.00
2023-04-30T09:38:52.519Z,598.00
2023-04-30T09:39:52.983Z,597.00
2023-04-30T09:40:52.570Z,595.00
2023-04-30T09:41:52.578Z,596.00
2023-04-30T09:42:52.654Z,594.00
2023-04-30T09:43:52.667Z,594.00
2023-04-30T09:44:52.703Z,595.00
2023-04-30T09:45:52.728Z,594.00
2023-04-30T09:46:52.786Z,594.00
2023-04-30T09:47:54.070Z,594.00
2023-04-30T09:48:52.781Z,594.00
2023-04-30T09:49:53.137Z,593.00
2023-04-30T09:50:52.772Z,593.00
2023-04-30T09:51:52.718Z,595.00
2023-04-30T09:52:52.719Z,592.00
2023-04-30T09:53:52.707Z,590.00
2023-04-30T09:54:52.705Z,591.00
2023-04-30T09:55:52.750Z,591.00
2023-04-30T09:56:52.735Z,593.00
2023-04-30T09:57:52.701Z,596.00
2023-04-30T09:58:52.701Z,596.00
2023-04-30T09:59:53.048Z,594.00
2023-04-30T10:00:52.712Z,594.00
2023-04-30T10:01:52.687Z,592.00
2023-04-30T10:02:52.739Z,592.00
2023-04-30T10:03:52.722Z,593.00
2023-04-30T10:04:52.677Z,592.00
2023-04-30T10:05:52.667Z,591.00
2023-04-30T10:06:52.670Z,593.00
2023-04-30T10:07:52.629Z,594.00
2023-04-30T10:08:52.669Z,594.00
2023-04-30T10:09:52.986Z,592.00
2023-04-30T10:10:52.621Z,592.00
2023-04-30T10:11:52.605Z,593.00
2023-04-30T10:12:52.637Z,592.00
2023-04-30T10:13:52.597Z,594.00
2023-04-30T10:14:52.636Z,596.00
2023-04-30T10:15:52.616Z,595.00
2023-04-30T10:16:52.673Z,593.00
2023-04-30T10:17:52.709Z,594.00
2023-04-30T10:18:52.552Z,597.00
2023-04-30T10:19:52.870Z,598.00
2023-04-30T10:20:52.560Z,598.00
2023-04-30T10:21:52.570Z,596.00
2023-04-30T10:22:52.566Z,596.00
2023-04-30T10:23:52.537Z,595.00
2023-04-30T10:24:52.548Z,594.00
2023-04-30T10:25:52.522Z,595.00
2023-04-30T10:26:52.527Z,595.00
2023-04-30T10:27:52.518Z,592.00
2023-04-30T10:28:52.481Z,592.00
2023-04-30T10:29:52.535Z,591.00
2023-04-30T10:30:52.487Z,592.00
2023-04-30T10:31:52.545Z,592.00
2023-04-30T10:32:52.479Z,591.00
2023-04-30T10:33:52.483Z,594.00
2023-04-30T10:34:52.459Z,595.00
2023-04-30T10:35:52.508Z,596.00
2023-04-30T10:36:52.446Z,597.00
2023-04-30T10:37:52.435Z,595.00
2023-04-30T10:38:52.406Z,595.00
2023-04-30T10:39:52.702Z,596.00
2023-04-30T10:40:52.416Z,595.00
2023-04-30T10:41:52.407Z,595.00
2023-04-30T10:42:52.426Z,595.00
2023-04-30T10:43:52.433Z,597.00
2023-04-30T10:44:52.429Z,594.00
2023-04-30T10:45:52.547Z,592.00
2023-04-30T10:46:52.501Z,591.00
2023-04-30T10:47:52.560Z,589.00
2023-04-30T10:48:52.527Z,589.00
2023-04-30T10:49:52.879Z,590.00
2023-04-30T10:50:52.604Z,590.00
2023-04-30T10:51:52.591Z,590.00
2023-04-30T10:52:52.593Z,589.00
2023-04-30T10:53:52.622Z,588.00
2023-04-30T10:54:52.690Z,588.00
2023-04-30T10:55:52.681Z,589.00
2023-04-30T10:56:52.741Z,593.00
2023-04-30T10:57:52.739Z,592.00
2023-04-30T10:58:52.749Z,593.00
2023-04-30T10:59:53.044Z,595.00
2023-04-30T11:00:52.748Z,595.00
2023-04-30T11:01:52.811Z,594.00
2023-04-30T11:02:52.868Z,595.00
2023-04-30T11:03:52.850Z,596.00
2023-04-30T11:04:52.864Z,595.00
2023-04-30T11:05:52.853Z,596.00
2023-04-30T11:06:52.845Z,598.00
2023-04-30T11:07:52.897Z,598.00
2023-04-30T11:08:52.918Z,598.00
2023-04-30T11:09:53.056Z,597.00
2023-04-30T11:10:52.931Z,597.00
2023-04-30T11:11:52.948Z,596.00
2023-04-30T11:12:52.960Z,597.00
2023-04-30T11:13:52.996Z,597.00
2023-04-30T11:14:53.020Z,596.00
2023-04-30T11:15:53.077Z,596.00
2023-04-30T11:16:53.040Z,595.00
2023-04-30T11:17:53.463Z,594.00
2023-04-30T11:18:53.059Z,594.00
2023-04-30T11:19:53.304Z,592.00
2023-04-30T11:20:53.077Z,594.00
2023-04-30T11:21:53.091Z,595.00
2023-04-30T11:22:53.123Z,595.00
2023-04-30T11:23:53.116Z,594.00
2023-04-30T11:24:53.122Z,592.00
2023-04-30T11:25:53.160Z,593.00
2023-04-30T11:26:53.186Z,593.00
2023-04-30T11:27:53.191Z,594.00
2023-04-30T11:28:53.240Z,593.00
2023-04-30T11:29:53.728Z,593.00
2023-04-30T11:30:53.263Z,592.00
2023-04-30T11:31:53.482Z,593.00
2023-04-30T11:32:53.344Z,592.00
2023-04-30T11:33:53.284Z,590.00
2023-04-30T11:34:53.261Z,587.00
2023-04-30T11:35:53.525Z,588.00
2023-04-30T11:36:53.327Z,588.00
2023-04-30T11:37:53.320Z,590.00
2023-04-30T11:38:53.327Z,590.00
2023-04-30T11:39:53.472Z,589.00
2023-04-30T11:40:53.330Z,589.00
2023-04-30T11:41:53.362Z,586.00
2023-04-30T11:42:53.425Z,585.00
2023-04-30T11:43:53.436Z,584.00
2023-04-30T11:44:53.437Z,583.00
2023-04-30T11:45:53.449Z,584.00
2023-04-30T11:46:53.536Z,582.00
2023-04-30T11:47:54.105Z,586.00
2023-04-30T11:48:53.470Z,588.00
2023-04-30T11:49:53.637Z,588.00
2023-04-30T11:50:53.531Z,587.00
2023-04-30T11:51:53.542Z,588.00
2023-04-30T11:52:53.537Z,590.00
2023-04-30T11:53:53.534Z,593.00
2023-04-30T11:54:53.560Z,595.00
2023-04-30T11:55:53.608Z,593.00
2023-04-30T11:56:53.586Z,592.00
2023-04-30T11:57:53.594Z,591.00
2023-04-30T11:58:53.645Z,585.00
2023-04-30T11:59:53.746Z,586.00
2023-04-30T12:00:53.710Z,586.00
2023-04-30T12:01:53.788Z,590.00
2023-04-30T12:02:53.881Z,589.00
2023-04-30T12:03:53.854Z,586.00
2023-04-30T12:04:53.796Z,586.00
2023-04-30T12:05:53.795Z,588.00
2023-04-30T12:06:53.812Z,589.00
2023-04-30T12:07:53.839Z,590.00
2023-04-30T12:08:53.853Z,590.00
2023-04-30T12:09:54.099Z,587.00
2023-04-30T12:10:53.879Z,589.00
2023-04-30T12:11:53.912Z,591.00
2023-04-30T12:12:53.915Z,591.00
2023-04-30T12:13:53.950Z,591.00
2023-04-30T12:14:53.997Z,593.00
2023-04-30T12:15:54.006Z,594.00
2023-04-30T12:16:54.133Z,595.00
2023-04-30T12:17:54.127Z,595.00
2023-04-30T12:18:54.109Z,592.00
2023-04-30T12:19:54.197Z,591.00
2023-04-30T12:20:54.138Z,589.00
2023-04-30T12:21:54.169Z,588.00
2023-04-30T12:22:54.250Z,589.00
2023-04-30T12:23:54.224Z,590.00
2023-04-30T12:24:54.276Z,590.00
2023-04-30T12:25:54.265Z,590.00
2023-04-30T12:26:54.298Z,590.00
2023-04-30T12:27:54.330Z,589.00
2023-04-30T12:28:54.361Z,588.00